createdAt,value
2019-03-01T00:00:09.701Z,72.10
2019-03-01T00:03:32.336Z,71.13
2019-03-01T00:07:36.598Z,68.83
2019-03-01T00:11:41.809Z,66.10
2019-03-01T00:15:28.917Z,69.63
2019-03-01T00:19:07.447Z,64.90
2019-03-01T00:22:47.299Z,67.57
2019-03-01T00:26:31.808Z,72.43
2019-03-01T00:30:26.149Z,60.93
2019-03-01T00:34:26.838Z,66.53
2019-03-01T00:38:33.178Z,65.63
2019-03-01T00:42:23.568Z,67.77
2019-03-01T00:45:45.739Z,66.37
2019-03-01T00:49:08.330Z,73.67
2019-03-01T00:52:30.837Z,66.33
2019-03-01T00:55:53.421Z,72.90
2019-03-01T00:59:15.952Z,73.93
2019-03-01T01:02:38.839Z,75.00
2019-03-01T01:06:01.157Z,80.80
2019-03-01T01:09:23.868Z,73.07
2019-03-01T01:12:46.833Z,82.90
2019-03-01T01:16:09.159Z,74.30
2019-03-01T01:19:31.821Z,71.47
2019-03-01T01:22:54.014Z,66.20
2019-03-01T01:26:16.477Z,65.53
2019-03-01T01:29:38.901Z,66.33
2019-03-01T01:33:01.574Z,63.87
2019-03-01T01:36:24.026Z,63.03
2019-03-01T01:39:46.489Z,75.43
2019-03-01T01:43:08.561Z,68.93
2019-03-01T01:46:30.995Z,69.80
2019-03-01T01:49:53.401Z,69.47
2019-03-01T01:53:16.912Z,70.03
2019-03-01T01:56:39.382Z,66.67
2019-03-01T02:00:02.152Z,66.53
2019-03-01T02:03:24.533Z,71.90
2019-03-01T02:06:47.090Z,62.40
2019-03-01T02:10:09.732Z,64.40
2019-03-01T02:13:32.505Z,64.50
2019-03-01T02:16:55.292Z,73.50
2019-03-01T02:20:18.043Z,77.30
2019-03-01T02:23:41.101Z,78.20
2019-03-01T02:27:27.198Z,72.47
2019-03-01T02:30:49.953Z,69.83
2019-03-01T02:34:12.336Z,70.80
2019-03-01T02:37:34.649Z,75.30
2019-03-01T02:40:57.021Z,65.57
2019-03-01T02:44:19.181Z,68.93
2019-03-01T02:47:41.905Z,70.50
2019-03-01T02:51:04.271Z,69.60
2019-03-01T02:54:26.431Z,66.73
2019-03-01T02:57:48.923Z,67.83
2019-03-01T03:01:11.313Z,63.37
2019-03-01T03:04:33.443Z,65.77
2019-03-01T03:08:00.746Z,64.70
2019-03-01T03:11:23.229Z,59.87
2019-03-01T03:14:45.433Z,63.33
2019-03-01T03:18:07.982Z,58.60
2019-03-01T03:21:30.526Z,58.07
2019-03-01T03:24:53.279Z,61.60
2019-03-01T03:28:15.750Z,68.13
2019-03-01T03:31:38.390Z,72.63
2019-03-01T03:35:00.748Z,69.97
2019-03-01T03:38:23.432Z,65.03
2019-03-01T03:41:45.990Z,61.97
2019-03-01T03:45:09.269Z,66.10
2019-03-01T03:48:32.041Z,67.73
2019-03-01T03:51:55.015Z,61.17
2019-03-01T03:55:18.479Z,72.83
2019-03-01T03:58:41.093Z,64.70
2019-03-01T04:02:03.644Z,71.70
2019-03-01T04:05:26.634Z,64.77
2019-03-01T04:08:48.972Z,73.60
2019-03-01T04:12:11.670Z,72.23
2019-03-01T04:15:34.282Z,67.90
2019-03-01T04:18:57.133Z,71.33
2019-03-01T04:22:19.957Z,70.07
2019-03-01T04:25:42.171Z,66.67
2019-03-01T04:29:04.577Z,70.13
2019-03-01T04:32:27.220Z,72.17
2019-03-01T04:35:49.900Z,71.40
2019-03-01T04:39:12.302Z,75.87
2019-03-01T04:42:34.670Z,74.63
2019-03-01T04:45:57.322Z,72.57
2019-03-01T04:49:19.761Z,76.33
2019-03-01T04:52:42.777Z,70.63
2019-03-01T04:56:05.263Z,72.90
2019-03-01T04:59:27.861Z,66.27
2019-03-01T05:02:50.312Z,70.17
2019-03-01T05:06:12.879Z,68.07
2019-03-01T05:09:35.009Z,70.80
2019-03-01T05:12:57.803Z,60.10
2019-03-01T05:16:20.299Z,74.53
2019-03-01T05:19:42.786Z,72.50
2019-03-01T05:23:05.290Z,83.37
2019-03-01T05:26:28.052Z,84.73
2019-03-01T05:29:50.605Z,92.47
2019-03-01T05:33:12.844Z,99.57
2019-03-01T05:36:35.530Z,116.60
2019-03-01T05:39:57.973Z,101.73
2019-03-01T05:43:20.891Z,112.00
2019-03-01T05:46:43.599Z,96.10
2019-03-01T05:50:07.139Z,104.47
2019-03-01T05:53:29.587Z,107.67
2019-03-01T05:56:52.553Z,117.20
2019-03-01T06:00:16.478Z,109.43
2019-03-01T06:03:56.002Z,107.90
2019-03-01T06:07:42.066Z,124.33
2019-03-01T06:11:41.044Z,114.30
2019-03-01T06:15:30.507Z,102.87
2019-03-01T06:19:33.447Z,96.67
2019-03-01T06:23:17.372Z,117.93
2019-03-01T06:27:03.780Z,124.50
2019-03-01T06:31:02.918Z,112.37
2019-03-01T06:35:16.070Z,108.73
2019-03-01T06:39:36.885Z,113.13
2019-03-01T06:43:29.788Z,113.57
2019-03-01T06:47:03.170Z,129.23
2019-03-01T06:50:39.103Z,117.20
2019-03-01T06:54:01.545Z,110.90
2019-03-01T06:57:24.454Z,121.17
2019-03-01T07:00:50.398Z,125.87
2019-03-01T07:04:19.408Z,118.93
2019-03-01T07:07:42.034Z,120.10
2019-03-01T07:11:05.036Z,117.47
2019-03-01T07:14:27.325Z,113.17
2019-03-01T07:17:49.988Z,112.00
2019-03-01T07:21:12.281Z,114.50
2019-03-01T07:24:35.019Z,122.33
2019-03-01T07:27:57.184Z,119.80
2019-03-01T07:31:19.954Z,131.33
2019-03-01T07:34:42.663Z,128.27
2019-03-01T07:38:05.128Z,130.93
2019-03-01T07:41:27.584Z,133.80
2019-03-01T07:44:50.042Z,138.73
2019-03-01T07:48:12.876Z,130.03
2019-03-01T07:51:37.793Z,134.50
2019-03-01T07:55:00.365Z,144.83
2019-03-01T07:58:25.630Z,148.77
2019-03-01T08:01:46.946Z,154.53
2019-03-01T08:05:10.858Z,158.53
2019-03-01T08:08:34.765Z,148.73
2019-03-01T08:11:57.269Z,157.53
2019-03-01T08:15:19.885Z,167.23
2019-03-01T08:18:44.309Z,173.80
2019-03-01T08:22:06.185Z,187.03
2019-03-01T08:25:28.905Z,191.80
2019-03-01T08:28:54.748Z,180.27
2019-03-01T08:32:15.470Z,187.73
2019-03-01T08:35:38.215Z,190.60
2019-03-01T08:39:04.650Z,189.97
2019-03-01T08:42:24.909Z,184.30
2019-03-01T08:45:47.273Z,185.30
2019-03-01T08:49:10.522Z,173.27
2019-03-01T08:52:37.224Z,173.20
2019-03-01T08:55:58.365Z,182.87
2019-03-01T08:59:20.905Z,182.10
2019-03-01T09:02:43.825Z,164.97
2019-03-01T09:06:06.483Z,180.30
2019-03-01T09:09:29.018Z,171.87
2019-03-01T09:12:51.119Z,172.83
2019-03-01T09:16:13.605Z,156.43
2019-03-01T09:19:36.034Z,167.33
2019-03-01T09:22:58.187Z,173.23
2019-03-01T09:26:20.776Z,189.07
2019-03-01T09:29:43.438Z,194.00
2019-03-01T09:33:05.981Z,201.30
2019-03-01T09:36:35.160Z,197.17
2019-03-01T09:40:05.248Z,193.73
2019-03-01T09:43:24.776Z,191.97
2019-03-01T09:46:45.501Z,178.43
2019-03-01T09:50:08.333Z,205.83
2019-03-01T09:53:34.025Z,178.40
2019-03-01T09:56:54.699Z,173.93
2019-03-01T10:00:18.968Z,151.20
2019-03-01T10:03:41.045Z,148.07
2019-03-01T10:07:03.448Z,135.63
2019-03-01T10:10:27.552Z,129.90
2019-03-01T10:13:49.874Z,136.80
2019-03-01T10:17:12.420Z,128.07
2019-03-01T10:20:34.808Z,129.47
2019-03-01T10:23:58.336Z,137.83
2019-03-01T10:27:20.856Z,145.90
2019-03-01T10:30:43.280Z,147.53
2019-03-01T10:34:05.897Z,147.73
2019-03-01T10:37:28.721Z,139.17
2019-03-01T10:40:51.234Z,141.23
2019-03-01T10:44:14.099Z,124.40
2019-03-01T10:47:36.554Z,138.97
2019-03-01T10:53:58.208Z,127.83
2019-03-01T10:57:20.754Z,130.57
2019-03-01T11:00:43.126Z,128.03
2019-03-01T11:04:05.600Z,138.50
2019-03-01T11:07:28.237Z,129.60
2019-03-01T11:10:50.717Z,105.53
2019-03-01T11:14:13.087Z,116.63
2019-03-01T11:17:35.775Z,130.97
2019-03-01T11:21:02.172Z,117.30
2019-03-01T11:24:24.861Z,139.07
2019-03-01T11:27:47.279Z,133.03
2019-03-01T11:31:09.743Z,138.50
2019-03-01T11:34:32.166Z,153.63
2019-03-01T11:37:55.007Z,152.93
2019-03-01T11:41:17.608Z,141.67
2019-03-01T11:44:40.011Z,154.10
2019-03-01T11:48:02.329Z,154.00
2019-03-01T11:51:24.400Z,146.63
2019-03-01T11:54:46.931Z,149.77
2019-03-01T11:58:09.357Z,157.17
2019-03-01T12:01:32.089Z,144.00
2019-03-01T12:04:54.981Z,169.03
2019-03-01T12:08:17.733Z,134.53
2019-03-01T12:11:40.176Z,145.10
2019-03-01T12:15:02.601Z,142.60
2019-03-01T12:18:25.005Z,152.90
2019-03-01T12:21:47.577Z,142.37
2019-03-01T12:25:10.546Z,129.27
2019-03-01T12:28:33.716Z,109.77
2019-03-01T12:31:56.296Z,99.87
2019-03-01T12:35:19.185Z,102.77
2019-03-01T12:38:41.833Z,105.37
2019-03-01T12:42:04.685Z,96.73
2019-03-01T12:45:27.514Z,100.77
2019-03-01T12:48:50.424Z,103.90
2019-03-01T12:54:08.540Z,109.93
2019-03-01T12:57:31.108Z,100.13
2019-03-01T13:00:53.606Z,102.90
2019-03-01T13:04:18.585Z,84.73
2019-03-01T13:07:40.983Z,78.00
2019-03-01T13:11:03.829Z,65.80
2019-03-01T13:14:26.390Z,78.07
2019-03-01T13:17:49.981Z,80.83
2019-03-01T13:21:13.586Z,69.33
2019-03-01T13:24:36.181Z,73.77
2019-03-01T13:27:58.851Z,50.23
2019-03-01T13:31:21.738Z,47.30
2019-03-01T13:34:45.813Z,45.23
2019-03-01T13:38:08.643Z,36.93
2019-03-01T13:41:34.013Z,41.00
2019-03-01T13:44:55.454Z,39.47
2019-03-01T13:48:19.011Z,32.83
2019-03-01T13:51:42.444Z,28.50
2019-03-01T13:55:04.896Z,30.03
2019-03-01T13:58:27.817Z,34.13
2019-03-01T14:01:50.353Z,30.77
2019-03-01T14:05:16.267Z,33.40
2019-03-01T14:08:37.795Z,38.57
2019-03-01T14:12:00.395Z,33.53
2019-03-01T14:15:22.915Z,25.60
2019-03-01T14:18:45.434Z,26.43
2019-03-01T14:22:10.691Z,23.90
2019-03-01T14:25:32.482Z,28.77
2019-03-01T14:28:54.725Z,31.03
2019-03-01T14:32:20.836Z,23.60
2019-03-01T14:35:41.681Z,23.10
2019-03-01T14:39:07.886Z,23.00
2019-03-01T14:42:29.930Z,17.77
2019-03-01T14:45:52.566Z,23.13
2019-03-01T14:49:15.115Z,17.50
2019-03-01T14:52:37.337Z,18.30
2019-03-01T14:56:16.737Z,17.03
2019-03-01T15:00:02.450Z,22.10
2019-03-01T15:03:35.575Z,21.17
2019-03-01T15:06:58.401Z,22.90
2019-03-01T15:10:20.805Z,20.20
2019-03-01T15:13:43.335Z,22.00
2019-03-01T15:17:06.401Z,19.90
2019-03-01T15:20:28.891Z,15.40
2019-03-01T15:23:51.806Z,17.17
2019-03-01T15:27:14.370Z,15.83
2019-03-01T15:30:36.870Z,16.47
2019-03-01T15:33:59.780Z,30.60
2019-03-01T15:37:22.425Z,22.30
2019-03-01T15:40:45.061Z,13.87
2019-03-01T15:44:07.741Z,15.90
